createdAt,value
2023-04-20T00:00:11.451Z,10.73
2023-04-20T00:02:40.302Z,10.74
2023-04-20T00:05:11.920Z,10.71
2023-04-20T00:07:41.608Z,10.56
2023-04-20T00:10:10.652Z,10.54
2023-04-20T00:12:38.657Z,10.62
2023-04-20T00:15:07.904Z,10.64
2023-04-20T00:17:36.629Z,10.77
2023-04-20T00:20:05.681Z,10.68
2023-04-20T00:22:38.267Z,10.75
2023-04-20T00:25:06.873Z,10.55
2023-04-20T00:27:34.827Z,10.48
2023-04-20T00:30:02.896Z,10.50
2023-04-20T00:32:30.890Z,10.35
2023-04-20T00:34:58.880Z,10.42
2023-04-20T00:37:26.930Z,10.42
2023-04-20T00:39:56.218Z,10.35
2023-04-20T00:42:24.138Z,10.21
2023-04-20T00:44:52.240Z,10.13
2023-04-20T00:47:20.213Z,10.29
2023-04-20T00:49:48.784Z,10.16
2023-04-20T00:52:17.057Z,10.14
2023-04-20T00:54:45.182Z,10.02
2023-04-20T00:57:15.537Z,10.16
2023-04-20T00:59:43.712Z,10.07
2023-04-20T01:02:12.126Z,10.23
2023-04-20T01:04:41.307Z,10.19
2023-04-20T01:07:09.181Z,10.16
2023-04-20T01:09:39.181Z,10.06
2023-04-20T01:12:07.637Z,10.09
2023-04-20T01:14:37.047Z,10.10
2023-04-20T01:17:06.112Z,9.92
2023-04-20T01:19:34.680Z,9.92
2023-04-20T01:22:02.947Z,9.97
2023-04-20T01:24:32.578Z,9.96
2023-04-20T01:29:29.925Z,9.98
2023-04-20T01:31:58.172Z,9.89
2023-04-20T01:34:26.304Z,9.93
2023-04-20T01:36:54.328Z,9.96
2023-04-20T01:39:22.302Z,9.96
2023-04-20T01:41:51.866Z,9.94
2023-04-20T01:44:19.854Z,9.90
2023-04-20T01:46:47.851Z,9.97
2023-04-20T01:49:16.219Z,10.00
2023-04-20T01:51:44.320Z,9.98
2023-04-20T01:54:12.267Z,9.94
2023-04-20T01:56:40.679Z,10.02
2023-04-20T01:59:09.994Z,10.06
2023-04-20T02:01:37.843Z,9.96
2023-04-20T02:04:06.286Z,9.68
2023-04-20T02:06:34.290Z,9.68
2023-04-20T02:09:02.152Z,9.80
2023-04-20T02:11:30.062Z,9.82
2023-04-20T02:13:58.077Z,9.72
2023-04-20T02:16:29.367Z,9.81
2023-04-20T02:18:57.523Z,9.77
2023-04-20T02:21:25.948Z,9.70
2023-04-20T02:23:53.796Z,9.62
2023-04-20T02:26:21.781Z,9.70
2023-04-20T02:28:49.610Z,9.73
2023-04-20T02:31:17.754Z,9.66
2023-04-20T02:33:47.793Z,9.68
2023-04-20T02:36:15.776Z,9.57
2023-04-20T02:38:43.820Z,9.64
2023-04-20T02:41:11.790Z,9.71
2023-04-20T02:43:40.179Z,9.52
2023-04-20T02:46:08.531Z,9.63
2023-04-20T02:48:36.572Z,9.59
2023-04-20T02:51:05.784Z,9.49
2023-04-20T02:53:33.698Z,9.57
2023-04-20T02:56:02.033Z,9.63
2023-04-20T02:58:30.006Z,9.66
2023-04-20T03:01:01.297Z,9.66
2023-04-20T03:03:30.386Z,9.61
2023-04-20T03:05:58.593Z,9.66
2023-04-20T03:08:27.855Z,9.64
2023-04-20T03:10:55.728Z,9.68
2023-04-20T03:13:23.687Z,9.76
2023-04-20T03:15:51.574Z,9.74
2023-04-20T03:18:19.688Z,9.59
2023-04-20T03:20:47.540Z,9.56
2023-04-20T03:23:15.476Z,9.56
2023-04-20T03:25:44.827Z,9.56
2023-04-20T03:28:12.707Z,9.52
2023-04-20T03:30:40.662Z,9.46
2023-04-20T03:33:09.078Z,9.50
2023-04-20T03:35:39.399Z,9.42
2023-04-20T03:38:07.475Z,9.51
2023-04-20T03:40:36.420Z,9.53
2023-04-20T03:43:05.917Z,9.26
2023-04-20T03:45:34.065Z,9.16
2023-04-20T03:48:02.190Z,9.15
2023-04-20T03:50:30.252Z,9.13
2023-04-20T03:52:58.123Z,9.22
2023-04-20T03:55:27.326Z,9.07
2023-04-20T03:57:55.825Z,9.02
2023-04-20T04:00:25.210Z,8.94
2023-04-20T04:02:53.255Z,8.95
2023-04-20T04:05:21.287Z,8.95
2023-04-20T04:07:49.419Z,8.96
2023-04-20T04:10:19.038Z,9.06
2023-04-20T04:12:47.137Z,8.97
2023-04-20T04:15:19.648Z,8.88
2023-04-20T04:17:49.259Z,8.94
2023-04-20T04:20:19.721Z,8.99
2023-04-20T04:22:47.653Z,8.98
2023-04-20T04:25:15.696Z,9.02
2023-04-20T04:27:44.043Z,9.14
2023-04-20T04:30:13.936Z,9.03
2023-04-20T04:32:42.114Z,9.04
2023-04-20T04:35:11.903Z,8.90
2023-04-20T04:37:39.892Z,8.90
2023-04-20T04:40:10.009Z,8.88
2023-04-20T04:42:38.131Z,8.97
2023-04-20T04:45:07.547Z,9.05
2023-04-20T04:47:36.475Z,9.05
2023-04-20T04:50:05.677Z,9.01
2023-04-20T04:52:35.167Z,8.90
2023-04-20T04:55:08.074Z,8.83
2023-04-20T04:57:36.267Z,8.79
2023-04-20T05:00:06.903Z,8.90
2023-04-20T05:02:35.163Z,8.92
2023-04-20T05:05:03.524Z,9.07
2023-04-20T05:07:31.459Z,9.08
2023-04-20T05:10:00.784Z,9.06
2023-04-20T05:12:31.680Z,9.19
2023-04-20T05:14:59.621Z,9.15
2023-04-20T05:17:28.435Z,9.08
2023-04-20T05:19:56.456Z,9.06
2023-04-20T05:22:24.688Z,9.20
2023-04-20T05:24:52.666Z,9.18
2023-04-20T05:27:22.440Z,9.16
2023-04-20T05:29:50.803Z,8.93
2023-04-20T05:32:18.710Z,9.03
2023-04-20T05:34:46.677Z,8.85
2023-04-20T05:37:16.167Z,8.92
2023-04-20T05:39:44.215Z,8.93
2023-04-20T05:42:12.171Z,8.88
2023-04-20T05:44:43.250Z,8.91
2023-04-20T05:47:11.479Z,8.99
2023-04-20T05:49:39.632Z,8.88
2023-04-20T05:52:07.516Z,9.00
2023-04-20T05:54:35.535Z,9.05
2023-04-20T05:57:05.449Z,8.92
2023-04-20T05:59:33.651Z,8.87
2023-04-20T06:02:03.069Z,8.88
2023-04-20T06:04:31.802Z,8.94
2023-04-20T06:07:00.417Z,8.94
2023-04-20T06:09:28.391Z,9.09
2023-04-20T06:11:56.305Z,9.02
2023-04-20T06:14:24.292Z,9.13
2023-04-20T06:16:52.322Z,9.17
2023-04-20T06:19:21.620Z,9.22
2023-04-20T06:21:49.634Z,9.11
2023-04-20T06:24:17.637Z,9.08
2023-04-20T06:26:45.647Z,9.08
2023-04-20T06:29:15.348Z,9.10
2023-04-20T06:31:43.336Z,9.13
2023-04-20T06:34:12.493Z,9.27
2023-04-20T06:36:45.032Z,9.31
2023-04-20T06:39:13.092Z,9.22
2023-04-20T06:41:41.497Z,9.39
2023-04-20T06:44:09.387Z,9.27
2023-04-20T06:46:37.568Z,9.39
2023-04-20T06:49:05.590Z,9.46
2023-04-20T06:51:34.622Z,9.34
2023-04-20T06:54:04.060Z,9.26
2023-04-20T06:56:34.224Z,9.32
2023-04-20T06:59:03.571Z,9.13
2023-04-20T07:01:33.349Z,9.16
2023-04-20T07:04:02.291Z,9.11
2023-04-20T07:06:30.628Z,9.15
2023-04-20T07:08:58.747Z,9.32
2023-04-20T07:11:28.124Z,9.40
2023-04-20T07:13:56.087Z,9.46
2023-04-20T07:16:24.233Z,9.32
2023-04-20T07:18:52.361Z,9.36
2023-04-20T07:21:20.288Z,9.44
2023-04-20T07:23:48.409Z,9.43
2023-04-20T07:26:16.434Z,9.38
2023-04-20T07:28:45.640Z,9.26
2023-04-20T07:31:13.607Z,9.09
2023-04-20T07:33:41.621Z,9.10
2023-04-20T07:36:10.297Z,9.14
2023-04-20T07:38:38.685Z,9.24
2023-04-20T07:41:10.039Z,9.31
2023-04-20T07:43:38.669Z,9.24
2023-04-20T07:46:08.226Z,9.35
2023-04-20T07:48:38.120Z,9.29
2023-04-20T07:51:06.164Z,9.21
2023-04-20T07:53:35.621Z,9.33
2023-04-20T07:56:03.645Z,9.47
2023-04-20T07:58:31.547Z,9.42
2023-04-20T08:00:59.668Z,9.21
2023-04-20T08:03:29.159Z,9.29
2023-04-20T08:05:57.374Z,9.33
2023-04-20T08:08:25.479Z,9.45
2023-04-20T08:10:53.361Z,9.40
2023-04-20T08:13:21.306Z,9.46
2023-04-20T08:15:49.465Z,9.51
2023-04-20T08:18:17.704Z,9.45
2023-04-20T08:20:47.810Z,9.51
2023-04-20T08:23:15.812Z,9.44
2023-04-20T08:25:43.782Z,9.24
2023-04-20T08:28:19.295Z,9.24
2023-04-20T08:30:53.009Z,9.34
2023-04-20T08:33:21.680Z,9.24
2023-04-20T08:35:51.712Z,9.42
2023-04-20T08:38:30.659Z,9.27
2023-04-20T08:41:01.492Z,9.30
2023-04-20T08:43:31.087Z,9.20
2023-04-20T08:46:01.825Z,9.29
2023-04-20T08:48:36.594Z,9.57
2023-04-20T08:51:07.396Z,9.66
2023-04-20T08:53:35.488Z,9.72
2023-04-20T08:56:03.793Z,9.75
2023-04-20T08:58:33.985Z,10.01
2023-04-20T09:01:02.046Z,10.32
2023-04-20T09:03:34.986Z,10.75
2023-04-20T09:06:03.147Z,11.02
2023-04-20T09:08:40.285Z,11.14
2023-04-20T09:11:08.565Z,11.17
2023-04-20T09:13:36.442Z,11.11
2023-04-20T09:16:14.579Z,11.12
2023-04-20T09:18:53.027Z,11.05
2023-04-20T09:21:21.048Z,11.08
2023-04-20T09:24:00.182Z,11.22
2023-04-20T09:26:28.480Z,11.29
2023-04-20T09:28:56.496Z,11.34
2023-04-20T09:31:25.630Z,11.17
2023-04-20T09:34:02.207Z,10.86
2023-04-20T09:36:38.128Z,10.89
2023-04-20T09:39:09.448Z,10.83
2023-04-20T09:41:38.956Z,10.77
2023-04-20T09:44:07.613Z,10.77
2023-04-20T09:46:37.601Z,10.77
2023-04-20T09:49:07.247Z,10.73
2023-04-20T09:51:38.578Z,10.88
2023-04-20T09:54:08.667Z,10.93
2023-04-20T09:56:36.810Z,10.88
2023-04-20T09:59:04.940Z,10.88
2023-04-20T10:01:34.858Z,11.22
2023-04-20T10:04:04.186Z,11.91
2023-04-20T10:06:35.335Z,12.59
2023-04-20T10:09:05.537Z,13.21
2023-04-20T10:11:49.000Z,13.43
2023-04-20T10:14:23.370Z,13.33
2023-04-20T10:17:01.819Z,12.69
2023-04-20T10:19:41.558Z,12.43
2023-04-20T10:22:10.604Z,12.48
2023-04-20T10:24:39.127Z,12.15
2023-04-20T10:27:27.347Z,12.33
2023-04-20T10:29:55.417Z,12.24
2023-04-20T10:32:25.292Z,12.22
2023-04-20T10:35:13.945Z,12.02
2023-04-20T10:37:49.236Z,11.90
2023-04-20T10:40:17.346Z,11.89
2023-04-20T10:42:47.144Z,11.78
2023-04-20T10:45:15.150Z,11.95
2023-04-20T10:47:45.350Z,11.83
2023-04-20T10:50:16.093Z,11.74
2023-04-20T10:52:45.213Z,11.80
2023-04-20T10:55:21.026Z,11.81
2023-04-20T10:57:53.435Z,11.93
2023-04-20T11:00:24.086Z,11.87
2023-04-20T11:02:53.776Z,11.88
2023-04-20T11:05:23.101Z,12.17
2023-04-20T11:07:54.770Z,12.35
2023-04-20T11:10:24.947Z,12.46
2023-04-20T11:12:54.398Z,12.24
2023-04-20T11:15:32.872Z,12.21
2023-04-20T11:18:08.762Z,12.26
2023-04-20T11:20:37.587Z,12.27
2023-04-20T11:23:06.793Z,12.45
2023-04-20T11:25:34.997Z,12.54
2023-04-20T11:28:10.396Z,12.59
2023-04-20T11:30:42.221Z,12.50
2023-04-20T11:33:11.217Z,12.40
2023-04-20T11:35:40.255Z,12.34
2023-04-20T11:38:08.797Z,12.37
2023-04-20T11:40:37.377Z,12.44
2023-04-20T11:43:05.684Z,12.47
2023-04-20T11:45:36.749Z,12.07
2023-04-20T11:48:06.529Z,12.23
2023-04-20T11:50:38.304Z,12.22
2023-04-20T11:53:07.585Z,12.13
2023-04-20T11:55:35.434Z,11.83
2023-04-20T11:58:03.992Z,11.98
2023-04-20T12:00:32.146Z,11.95
2023-04-20T12:03:02.192Z,11.96
2023-04-20T12:05:30.428Z,11.73
2023-04-20T12:07:58.415Z,11.84
2023-04-20T12:10:26.426Z,12.01
2023-04-20T12:12:54.889Z,12.07
2023-04-20T12:15:22.866Z,11.95
2023-04-20T12:17:50.743Z,11.76
2023-04-20T12:20:20.227Z,11.74
2023-04-20T12:22:48.239Z,11.63
2023-04-20T12:25:18.774Z,11.55
2023-04-20T12:27:48.181Z,11.53
2023-04-20T12:30:17.759Z,11.42
2023-04-20T12:32:45.729Z,11.35
2023-04-20T12:35:13.690Z,11.44
2023-04-20T12:37:43.131Z,11.59
2023-04-20T12:40:11.750Z,11.64
2023-04-20T12:42:39.847Z,11.74
2023-04-20T12:45:09.357Z,11.53
2023-04-20T12:47:37.487Z,11.61
2023-04-20T12:50:07.361Z,11.88
2023-04-20T12:52:35.652Z,12.05
2023-04-20T12:55:08.533Z,12.20
2023-04-20T12:57:37.404Z,12.51
2023-04-20T13:00:09.046Z,12.81
2023-04-20T13:02:37.289Z,12.67
2023-04-20T13:05:05.939Z,12.52
2023-04-20T13:07:33.998Z,12.67
2023-04-20T13:10:02.473Z,12.75
2023-04-20T13:12:32.007Z,12.82
2023-04-20T13:14:59.834Z,12.64
2023-04-20T13:17:27.883Z,12.54
2023-04-20T13:19:55.880Z,12.64
2023-04-20T13:22:23.750Z,12.57
2023-04-20T13:24:54.818Z,12.57
2023-04-20T13:27:22.853Z,12.53
2023-04-20T13:29:55.396Z,12.59
2023-04-20T13:32:23.329Z,12.57
2023-04-20T13:34:52.304Z,12.60
2023-04-20T13:37:20.610Z,12.42
2023-04-20T13:39:48.996Z,12.31
2023-04-20T13:42:16.936Z,12.26
2023-04-20T13:44:45.743Z,12.28
2023-04-20T13:47:16.317Z,12.50
2023-04-20T13:49:44.669Z,12.81
2023-04-20T13:52:12.748Z,12.96
2023-04-20T13:54:40.690Z,13.09
2023-04-20T13:57:09.011Z,13.01
2023-04-20T13:59:36.970Z,13.29
2023-04-20T14:02:04.910Z,13.39
2023-04-20T14:04:34.601Z,13.40
2023-04-20T14:07:02.699Z,13.25
2023-04-20T14:09:32.256Z,13.32
2023-04-20T14:12:01.612Z,13.61
2023-04-20T14:14:29.817Z,13.64
2023-04-20T14:16:57.779Z,13.67
2023-04-20T14:19:25.688Z,13.41
2023-04-20T14:21:55.082Z,13.67
2023-04-20T14:24:23.130Z,13.74
2023-04-20T14:26:52.157Z,13.76
2023-04-20T14:29:20.166Z,13.77
2023-04-20T14:31:48.483Z,13.57
2023-04-20T14:34:16.759Z,13.50
2023-04-20T14:36:44.904Z,13.65
2023-04-20T14:39:14.762Z,13.68
2023-04-20T14:41:42.932Z,13.80
2023-04-20T14:44:11.088Z,14.00
2023-04-20T14:46:42.267Z,13.89
2023-04-20T14:49:10.911Z,13.92
2023-04-20T14:51:38.831Z,13.93
2023-04-20T14:54:06.846Z,14.14
2023-04-20T14:56:36.544Z,14.29
2023-04-20T14:59:04.732Z,14.26
2023-04-20T15:01:32.711Z,14.26
2023-04-20T15:04:02.002Z,14.26
2023-04-20T15:06:30.096Z,14.31
2023-04-20T15:08:58.383Z,14.53
2023-04-20T15:11:26.295Z,14.43
2023-04-20T15:13:55.699Z,14.53
2023-04-20T15:16:23.670Z,14.40
2023-04-20T15:18:53.293Z,14.63
2023-04-20T15:21:21.572Z,14.95
2023-04-20T15:23:49.589Z,15.12
2023-04-20T15:26:17.677Z,15.01
2023-04-20T15:28:46.332Z,15.01
2023-04-20T15:31:18.996Z,14.95
2023-04-20T15:33:47.995Z,14.85
2023-04-20T15:36:20.103Z,14.76
2023-04-20T15:38:48.280Z,14.72
2023-04-20T15:41:16.528Z,14.73
2023-04-20T15:43:44.816Z,14.85
2023-04-20T15:46:13.153Z,15.06
2023-04-20T15:48:43.319Z,15.10
2023-04-20T15:51:11.320Z,15.06
2023-04-20T15:53:39.373Z,15.07
2023-04-20T15:56:07.508Z,15.28
2023-04-20T15:58:35.784Z,15.33
2023-04-20T16:01:03.886Z,15.36
2023-04-20T16:03:35.173Z,15.18
2023-04-20T16:06:04.804Z,15.20
2023-04-20T16:08:36.535Z,15.31
2023-04-20T16:11:04.699Z,15.36
2023-04-20T16:13:37.065Z,15.33
2023-04-20T16:16:05.254Z,15.08
2023-04-20T16:18:33.894Z,15.09
2023-04-20T16:21:01.919Z,14.94
2023-04-20T16:23:32.387Z,14.93
2023-04-20T16:26:03.424Z,14.66
2023-04-20T16:28:32.704Z,14.42
2023-04-20T16:31:00.696Z,14.31
2023-04-20T16:33:32.646Z,14.44
2023-04-20T16:36:01.890Z,14.24
2023-04-20T16:38:32.239Z,14.09
2023-04-20T16:41:00.189Z,14.16
2023-04-20T16:43:30.476Z,13.93
2023-04-20T16:45:58.907Z,13.85
2023-04-20T16:48:26.929Z,13.75
2023-04-20T16:50:55.016Z,13.64
2023-04-20T16:53:22.924Z,13.66
2023-04-20T16:55:52.486Z,13.67
2023-04-20T16:58:20.684Z,13.58
2023-04-20T17:00:48.673Z,13.43
2023-04-20T17:03:16.646Z,13.28
2023-04-20T17:05:46.583Z,13.21
2023-04-20T17:08:14.435Z,13.24
2023-04-20T17:10:42.312Z,13.11
2023-04-20T17:13:11.647Z,12.96
2023-04-20T17:15:40.136Z,12.82
2023-04-20T17:18:08.157Z,12.88
2023-04-20T17:20:36.260Z,12.88
2023-04-20T17:23:04.419Z,12.90
2023-04-20T17:25:35.296Z,12.78
2023-04-20T17:28:03.837Z,12.79
2023-04-20T17:30:35.214Z,12.85
2023-04-20T17:33:03.214Z,12.69
2023-04-20T17:35:31.706Z,12.69
2023-04-20T17:38:00.232Z,12.64
2023-04-20T17:40:28.349Z,12.54
2023-04-20T17:42:56.439Z,12.53
2023-04-20T17:45:24.697Z,12.53
2023-04-20T17:47:54.423Z,12.49
2023-04-20T17:50:22.959Z,12.40
2023-04-20T17:52:51.657Z,12.37
2023-04-20T17:55:19.912Z,12.29
2023-04-20T17:57:48.272Z,12.35
2023-04-20T18:00:17.287Z,12.33
2023-04-20T18:02:45.583Z,12.27
2023-04-20T18:05:15.573Z,12.15
2023-04-20T18:07:43.750Z,12.25
2023-04-20T18:10:13.649Z,12.31
2023-04-20T18:12:41.693Z,12.21
2023-04-20T18:15:10.911Z,12.19
2023-04-20T18:17:39.240Z,12.24
2023-04-20T18:20:08.769Z,12.21
2023-04-20T18:22:38.335Z,12.17
2023-04-20T18:25:07.082Z,12.07
2023-04-20T18:27:35.101Z,11.97
2023-04-20T18:30:03.257Z,11.94
2023-04-20T18:32:36.264Z,11.94
2023-04-20T18:35:04.332Z,11.89
2023-04-20T18:37:33.347Z,11.87
2023-04-20T18:40:03.328Z,11.87
2023-04-20T18:42:34.484Z,11.94
2023-04-20T18:45:06.458Z,11.77
2023-04-20T18:47:34.757Z,11.83
2023-04-20T18:50:02.803Z,11.87
2023-04-20T18:52:34.569Z,11.90
2023-04-20T18:55:04.074Z,11.85
2023-04-20T18:57:32.614Z,11.70
2023-04-20T19:00:00.622Z,11.81
2023-04-20T19:02:28.820Z,11.84
2023-04-20T19:04:56.906Z,11.79
2023-04-20T19:07:24.871Z,11.79
2023-04-20T19:09:52.806Z,11.77
2023-04-20T19:12:23.120Z,11.70
2023-04-20T19:14:51.603Z,11.75
2023-04-20T19:17:22.172Z,11.69
2023-04-20T19:19:51.041Z,11.68
2023-04-20T19:22:19.172Z,11.64
2023-04-20T19:24:47.198Z,11.64
2023-04-20T19:27:16.376Z,11.55
2023-04-20T19:29:46.237Z,11.48
2023-04-20T19:32:14.196Z,11.46
2023-04-20T19:34:42.798Z,11.51
2023-04-20T19:37:11.042Z,11.56
2023-04-20T19:39:39.183Z,11.48
2023-04-20T19:42:08.070Z,11.46
2023-04-20T19:44:36.601Z,11.40
2023-04-20T19:47:06.072Z,11.39
2023-04-20T19:49:34.143Z,11.36
2023-04-20T19:52:02.279Z,11.23
2023-04-20T19:54:31.330Z,11.28
2023-04-20T19:56:59.800Z,11.22
2023-04-20T19:59:32.696Z,11.21
2023-04-20T20:02:01.128Z,11.21
2023-04-20T20:04:35.142Z,11.07
2023-04-20T20:07:05.339Z,11.12
2023-04-20T20:09:38.193Z,10.98
2023-04-20T20:12:08.538Z,11.00
2023-04-20T20:14:37.855Z,10.93
2023-04-20T20:17:06.660Z,10.88
2023-04-20T20:19:36.188Z,10.88
2023-04-20T20:22:07.334Z,10.80
2023-04-20T20:24:35.217Z,10.79
2023-04-20T20:27:03.837Z,10.85
2023-04-20T20:29:34.626Z,10.86
2023-04-20T20:32:02.593Z,10.78
2023-04-20T20:34:31.110Z,10.69
2023-04-20T20:37:00.385Z,10.85
2023-04-20T20:39:28.347Z,10.75
2023-04-20T20:41:57.206Z,10.80
2023-04-20T20:44:25.361Z,10.83
2023-04-20T20:46:53.296Z,10.79
2023-04-20T20:49:21.540Z,10.73
2023-04-20T20:51:49.432Z,10.67
2023-04-20T20:54:18.875Z,10.61
2023-04-20T20:56:46.815Z,10.63
2023-04-20T20:59:14.707Z,10.61
2023-04-20T21:01:42.753Z,10.59
2023-04-20T21:04:11.008Z,10.64
2023-04-20T21:06:39.207Z,10.63
2023-04-20T21:09:07.294Z,10.59
2023-04-20T21:11:36.679Z,10.58
2023-04-20T21:14:04.788Z,10.60
2023-04-20T21:16:32.800Z,10.52
2023-04-20T21:19:00.714Z,10.46
2023-04-20T21:21:29.081Z,10.52
2023-04-20T21:23:57.013Z,10.68
2023-04-20T21:26:25.248Z,10.61
2023-04-20T21:28:54.582Z,10.61
2023-04-20T21:31:22.420Z,10.60
2023-04-20T21:33:50.915Z,10.65
2023-04-20T21:36:18.949Z,10.63
2023-04-20T21:38:47.025Z,10.68
2023-04-20T21:41:15.205Z,10.75
2023-04-20T21:43:45.272Z,10.73
2023-04-20T21:46:17.236Z,10.61
2023-04-20T21:48:45.301Z,10.62
2023-04-20T21:51:16.209Z,10.67
2023-04-20T21:53:44.255Z,10.63
2023-04-20T21:56:12.494Z,10.52
2023-04-20T21:58:40.674Z,10.50
2023-04-20T22:01:09.100Z,10.46
2023-04-20T22:03:40.811Z,10.55
2023-04-20T22:06:09.740Z,10.50
2023-04-20T22:08:39.797Z,10.46
2023-04-20T22:11:07.958Z,10.45
2023-04-20T22:13:36.905Z,10.42
2023-04-20T22:16:05.285Z,10.42
2023-04-20T22:18:33.370Z,10.38
2023-04-20T22:21:03.498Z,10.29
2023-04-20T22:23:31.906Z,10.17
2023-04-20T22:26:02.686Z,10.17
2023-04-20T22:28:30.758Z,10.12
2023-04-20T22:30:58.940Z,10.16
2023-04-20T22:33:26.838Z,10.08
2023-04-20T22:35:55.080Z,10.03
2023-04-20T22:38:24.445Z,10.00
2023-04-20T22:40:55.332Z,9.99
2023-04-20T22:43:23.490Z,10.03
2023-04-20T22:45:51.685Z,9.88
2023-04-20T22:48:22.707Z,9.88
2023-04-20T22:50:51.170Z,9.85
2023-04-20T22:53:19.151Z,9.87
2023-04-20T22:55:48.552Z,9.82
2023-04-20T22:58:16.992Z,9.81
2023-04-20T23:00:45.340Z,9.87
2023-04-20T23:03:13.571Z,9.85
2023-04-20T23:05:44.520Z,9.84
2023-04-20T23:08:14.158Z,9.69
2023-04-20T23:10:42.220Z,9.76
2023-04-20T23:13:16.654Z,9.80
2023-04-20T23:15:44.935Z,9.74
2023-04-20T23:18:13.394Z,9.85
2023-04-20T23:20:41.387Z,9.84
2023-04-20T23:23:10.753Z,9.78
2023-04-20T23:25:38.801Z,9.82
2023-04-20T23:28:07.039Z,9.84
2023-04-20T23:30:36.743Z,9.79
2023-04-20T23:33:05.133Z,9.72
2023-04-20T23:35:33.677Z,9.57
2023-04-20T23:38:01.723Z,9.73
2023-04-20T23:40:29.665Z,9.66
2023-04-20T23:42:57.697Z,9.51
2023-04-20T23:45:25.760Z,9.59
2023-04-20T23:47:55.150Z,9.61
2023-04-20T23:50:23.225Z,9.58
2023-04-20T23:52:51.200Z,9.51
2023-04-20T23:55:19.424Z,9.55
2023-04-20T23:57:48.224Z,9.53
